sensor_id;sensor_type;location;lat;lon;timestamp;P1;durP1;ratioP1;P2;durP2;ratioP2
6033;SDS011;3045;43.226;27.858;2023-04-01T00:00:55;10.60;;;9.10;;
6033;SDS011;3045;43.226;27.858;2023-04-01T00:03:24;17.03;;;9.77;;
6033;SDS011;3045;43.226;27.858;2023-04-01T00:05:52;13.63;;;9.63;;
6033;SDS011;3045;43.226;27.858;2023-04-01T00:08:19;12.63;;;9.90;;
6033;SDS011;3045;43.226;27.858;2023-04-01T00:10:46;13.63;;;9.93;;
6033;SDS011;3045;43.226;27.858;2023-04-01T00:13:15;10.93;;;10.00;;
6033;SDS011;3045;43.226;27.858;2023-04-01T00:15:42;10.27;;;9.10;;
6033;SDS011;3045;43.226;27.858;2023-04-01T00:18:10;17.37;;;8.87;;
6033;SDS011;3045;43.226;27.858;2023-04-01T00:20:37;13.03;;;9.43;;
6033;SDS011;3045;43.226;27.858;2023-04-01T00:23:05;13.27;;;9.17;;
6033;SDS011;3045;43.226;27.858;2023-04-01T00:25:32;9.70;;;8.83;;
6033;SDS011;3045;43.226;27.858;2023-04-01T00:27:59;12.17;;;9.70;;
6033;SDS011;3045;43.226;27.858;2023-04-01T00:30:28;9.73;;;8.97;;
6033;SDS011;3045;43.226;27.858;2023-04-01T00:32:55;10.00;;;9.30;;
6033;SDS011;3045;43.226;27.858;2023-04-01T00:35:22;11.07;;;10.03;;
6033;SDS011;3045;43.226;27.858;2023-04-01T00:37:49;14.70;;;9.53;;
6033;SDS011;3045;43.226;27.858;2023-04-01T00:40:22;10.97;;;9.90;;
6033;SDS011;3045;43.226;27.858;2023-04-01T00:42:51;15.00;;;10.23;;
6033;SDS011;3045;43.226;27.858;2023-04-01T00:48:07;15.53;;;9.67;;
6033;SDS011;3045;43.226;27.858;2023-04-01T00:50:37;20.23;;;15.40;;
6033;SDS011;3045;43.226;27.858;2023-04-01T00:53:07;15.40;;;13.80;;
6033;SDS011;3045;43.226;27.858;2023-04-01T00:55:35;15.70;;;14.03;;
6033;SDS011;3045;43.226;27.858;2023-04-01T00:58:11;20.30;;;14.77;;
6033;SDS011;3045;43.226;27.858;2023-04-01T01:00:43;29.43;;;16.47;;
6033;SDS011;3045;43.226;27.858;2023-04-01T01:03:14;30.87;;;20.07;;
6033;SDS011;3045;43.226;27.858;2023-04-01T01:05:52;20.23;;;15.90;;
6033;SDS011;3045;43.226;27.858;2023-04-01T01:08:31;13.20;;;11.73;;
6033;SDS011;3045;43.226;27.858;2023-04-01T01:11:12;17.33;;;14.27;;
6033;SDS011;3045;43.226;27.858;2023-04-01T01:13:46;18.37;;;12.73;;
6033;SDS011;3045;43.226;27.858;2023-04-01T01:16:24;17.80;;;13.50;;
6033;SDS011;3045;43.226;27.858;2023-04-01T01:18:56;17.13;;;12.53;;
6033;SDS011;3045;43.226;27.858;2023-04-01T01:21:42;23.00;;;12.93;;
6033;SDS011;3045;43.226;27.858;2023-04-01T01:24:30;21.33;;;14.10;;
6033;SDS011;3045;43.226;27.858;2023-04-01T01:27:09;24.57;;;19.23;;
6033;SDS011;3045;43.226;27.858;2023-04-01T01:35:45;33.03;;;20.60;;
6033;SDS011;3045;43.226;27.858;2023-04-01T01:38:16;28.30;;;22.57;;
6033;SDS011;3045;43.226;27.858;2023-04-01T01:40:45;24.57;;;21.77;;
6033;SDS011;3045;43.226;27.858;2023-04-01T01:43:17;29.60;;;22.30;;
6033;SDS011;3045;43.226;27.858;2023-04-01T01:45:50;33.07;;;21.87;;
6033;SDS011;3045;43.226;27.858;2023-04-01T01:48:22;30.30;;;21.70;;
6033;SDS011;3045;43.226;27.858;2023-04-01T01:50:52;27.40;;;19.87;;
6033;SDS011;3045;43.226;27.858;2023-04-01T01:53:20;29.80;;;20.23;;
6033;SDS011;3045;43.226;27.858;2023-04-01T01:55:47;40.53;;;21.27;;
6033;SDS011;3045;43.226;27.858;2023-04-01T01:58:16;31.77;;;19.80;;
6033;SDS011;3045;43.226;27.858;2023-04-01T02:00:48;30.77;;;19.67;;
6033;SDS011;3045;43.226;27.858;2023-04-01T02:03:19;35.30;;;20.80;;
6033;SDS011;3045;43.226;27.858;2023-04-01T02:05:49;31.20;;;19.03;;
6033;SDS011;3045;43.226;27.858;2023-04-01T02:08:21;24.57;;;18.17;;
6033;SDS011;3045;43.226;27.858;2023-04-01T02:10:53;23.63;;;17.50;;
6033;SDS011;3045;43.226;27.858;2023-04-01T02:13:24;25.23;;;17.97;;
6033;SDS011;3045;43.226;27.858;2023-04-01T02:15:57;20.23;;;16.43;;
6033;SDS011;3045;43.226;27.858;2023-04-01T02:18:29;26.23;;;18.80;;
6033;SDS011;3045;43.226;27.858;2023-04-01T02:21:02;20.60;;;18.50;;
6033;SDS011;3045;43.226;27.858;2023-04-01T02:23:31;25.20;;;18.03;;
6033;SDS011;3045;43.226;27.858;2023-04-01T02:26:02;21.30;;;16.93;;
6033;SDS011;3045;43.226;27.858;2023-04-01T02:28:32;20.93;;;16.63;;
6033;SDS011;3045;43.226;27.858;2023-04-01T02:31:00;24.83;;;16.87;;
6033;SDS011;3045;43.226;27.858;2023-04-01T02:33:29;19.10;;;15.10;;
6033;SDS011;3045;43.226;27.858;2023-04-01T02:35:57;27.57;;;16.47;;
6033;SDS011;3045;43.226;27.858;2023-04-01T02:38:27;30.17;;;17.83;;
6033;SDS011;3045;43.226;27.858;2023-04-01T02:40:56;31.37;;;16.17;;
6033;SDS011;3045;43.226;27.858;2023-04-01T02:43:25;23.30;;;15.77;;
6033;SDS011;3045;43.226;27.858;2023-04-01T02:45:52;24.50;;;16.77;;
6033;SDS011;3045;43.226;27.858;2023-04-01T02:48:19;31.73;;;15.80;;
6033;SDS011;3045;43.226;27.858;2023-04-01T02:50:47;30.80;;;16.03;;
6033;SDS011;3045;43.226;27.858;2023-04-01T02:53:14;27.30;;;17.23;;
6033;SDS011;3045;43.226;27.858;2023-04-01T02:55:43;23.93;;;16.33;;
6033;SDS011;3045;43.226;27.858;2023-04-01T02:58:10;28.80;;;17.77;;
6033;SDS011;3045;43.226;27.858;2023-04-01T03:00:37;28.00;;;17.10;;
6033;SDS011;3045;43.226;27.858;2023-04-01T03:03:04;23.07;;;18.57;;
6033;SDS011;3045;43.226;27.858;2023-04-01T03:05:32;28.70;;;17.00;;
6033;SDS011;3045;43.226;27.858;2023-04-01T03:07:59;29.40;;;18.07;;
6033;SDS011;3045;43.226;27.858;2023-04-01T03:10:26;25.23;;;17.27;;
6033;SDS011;3045;43.226;27.858;2023-04-01T03:12:55;29.47;;;19.00;;
6033;SDS011;3045;43.226;27.858;2023-04-01T03:15:22;18.40;;;16.00;;
6033;SDS011;3045;43.226;27.858;2023-04-01T03:17:49;21.67;;;15.90;;
6033;SDS011;3045;43.226;27.858;2023-04-01T03:20:16;24.57;;;17.80;;
6033;SDS011;3045;43.226;27.858;2023-04-01T03:22:44;22.27;;;16.77;;
6033;SDS011;3045;43.226;27.858;2023-04-01T03:25:12;19.47;;;16.30;;
6033;SDS011;3045;43.226;27.858;2023-04-01T03:27:39;24.83;;;16.07;;
6033;SDS011;3045;43.226;27.858;2023-04-01T03:30:08;26.03;;;17.80;;
6033;SDS011;3045;43.226;27.858;2023-04-01T03:32:36;26.20;;;15.73;;
6033;SDS011;3045;43.226;27.858;2023-04-01T03:35:03;29.23;;;17.83;;
6033;SDS011;3045;43.226;27.858;2023-04-01T03:37:31;18.67;;;16.50;;
6033;SDS011;3045;43.226;27.858;2023-04-01T03:39:58;20.70;;;15.90;;
6033;SDS011;3045;43.226;27.858;2023-04-01T03:42:27;30.93;;;17.60;;
6033;SDS011;3045;43.226;27.858;2023-04-01T03:44:56;27.77;;;15.93;;
6033;SDS011;3045;43.226;27.858;2023-04-01T03:47:25;28.20;;;17.60;;
6033;SDS011;3045;43.226;27.858;2023-04-01T03:49:52;24.77;;;19.03;;
6033;SDS011;3045;43.226;27.858;2023-04-01T03:52:19;31.20;;;23.60;;
6033;SDS011;3045;43.226;27.858;2023-04-01T03:54:46;36.00;;;25.27;;
6033;SDS011;3045;43.226;27.858;2023-04-01T03:57:14;33.83;;;22.87;;
6033;SDS011;3045;43.226;27.858;2023-04-01T03:59:41;28.63;;;21.37;;
6033;SDS011;3045;43.226;27.858;2023-04-01T04:02:08;42.47;;;17.43;;
6033;SDS011;3045;43.226;27.858;2023-04-01T04:04:36;45.60;;;17.27;;
6033;SDS011;3045;43.226;27.858;2023-04-01T04:07:04;44.87;;;17.50;;
6033;SDS011;3045;43.226;27.858;2023-04-01T04:09:31;34.90;;;21.67;;
6033;SDS011;3045;43.226;27.858;2023-04-01T04:11:58;38.60;;;19.77;;
6033;SDS011;3045;43.226;27.858;2023-04-01T04:14:25;37.20;;;19.47;;
6033;SDS011;3045;43.226;27.858;2023-04-01T04:16:52;30.20;;;21.60;;
6033;SDS011;3045;43.226;27.858;2023-04-01T04:19:20;33.10;;;22.10;;
6033;SDS011;3045;43.226;27.858;2023-04-01T04:21:48;33.57;;;20.20;;
6033;SDS011;3045;43.226;27.858;2023-04-01T04:24:15;40.70;;;21.07;;
6033;SDS011;3045;43.226;27.858;2023-04-01T04:26:42;27.90;;;21.37;;
6033;SDS011;3045;43.226;27.858;2023-04-01T04:29:09;28.87;;;20.13;;
6033;SDS011;3045;43.226;27.858;2023-04-01T04:31:36;43.30;;;20.37;;
6033;SDS011;3045;43.226;27.858;2023-04-01T04:34:04;34.50;;;18.37;;
6033;SDS011;3045;43.226;27.858;2023-04-01T04:36:31;32.60;;;17.27;;
6033;SDS011;3045;43.226;27.858;2023-04-01T04:38:59;32.97;;;16.33;;
6033;SDS011;3045;43.226;27.858;2023-04-01T04:41:28;26.37;;;15.43;;
6033;SDS011;3045;43.226;27.858;2023-04-01T04:43:55;17.90;;;12.80;;
6033;SDS011;3045;43.226;27.858;2023-04-01T04:46:23;45.83;;;16.53;;
6033;SDS011;3045;43.226;27.858;2023-04-01T04:48:51;59.87;;;18.63;;
6033;SDS011;3045;43.226;27.858;2023-04-01T04:51:18;75.77;;;21.47;;
6033;SDS011;3045;43.226;27.858;2023-04-01T04:53:46;78.67;;;18.90;;
6033;SDS011;3045;43.226;27.858;2023-04-01T04:56:18;120.10;;;22.53;;
6033;SDS011;3045;43.226;27.858;2023-04-01T04:58:46;85.63;;;20.17;;
6033;SDS011;3045;43.226;27.858;2023-04-01T05:01:14;79.33;;;20.03;;
6033;SDS011;3045;43.226;27.858;2023-04-01T05:03:42;75.43;;;18.90;;
6033;SDS011;3045;43.226;27.858;2023-04-01T05:06:09;77.97;;;18.97;;
6033;SDS011;3045;43.226;27.858;2023-04-01T05:08:38;125.37;;;24.97;;
6033;SDS011;3045;43.226;27.858;2023-04-01T05:11:06;38.73;;;14.90;;
6033;SDS011;3045;43.226;27.858;2023-04-01T05:13:37;28.67;;;13.00;;
6033;SDS011;3045;43.226;27.858;2023-04-01T05:16:07;84.00;;;20.80;;
6033;SDS011;3045;43.226;27.858;2023-04-01T05:18:34;90.10;;;26.07;;
6033;SDS011;3045;43.226;27.858;2023-04-01T05:21:02;53.80;;;20.90;;
6033;SDS011;3045;43.226;27.858;2023-04-01T05:23:30;47.90;;;21.13;;
6033;SDS011;3045;43.226;27.858;2023-04-01T05:25:58;40.03;;;21.30;;
6033;SDS011;3045;43.226;27.858;2023-04-01T05:28:28;59.30;;;23.03;;
6033;SDS011;3045;43.226;27.858;2023-04-01T05:30:59;39.83;;;17.83;;
6033;SDS011;3045;43.226;27.858;2023-04-01T05:33:27;39.50;;;18.33;;
6033;SDS011;3045;43.226;27.858;2023-04-01T05:35:55;14.30;;;10.73;;
6033;SDS011;3045;43.226;27.858;2023-04-01T05:38:22;18.00;;;9.70;;
6033;SDS011;3045;43.226;27.858;2023-04-01T05:40:49;16.13;;;9.47;;
6033;SDS011;3045;43.226;27.858;2023-04-01T05:43:16;9.10;;;6.93;;
6033;SDS011;3045;43.226;27.858;2023-04-01T05:45:43;55.63;;;17.20;;
6033;SDS011;3045;43.226;27.858;2023-04-01T05:48:12;36.17;;;16.13;;
6033;SDS011;3045;43.226;27.858;2023-04-01T05:50:40;31.60;;;11.53;;
6033;SDS011;3045;43.226;27.858;2023-04-01T05:53:07;42.03;;;13.93;;
6033;SDS011;3045;43.226;27.858;2023-04-01T05:55:35;130.87;;;25.57;;
6033;SDS011;3045;43.226;27.858;2023-04-01T05:58:02;115.87;;;30.43;;
6033;SDS011;3045;43.226;27.858;2023-04-01T06:00:29;88.30;;;28.57;;
6033;SDS011;3045;43.226;27.858;2023-04-01T06:02:58;106.90;;;26.30;;
6033;SDS011;3045;43.226;27.858;2023-04-01T06:05:27;120.37;;;29.10;;
6033;SDS011;3045;43.226;27.858;2023-04-01T06:07:57;97.10;;;30.80;;
6033;SDS011;3045;43.226;27.858;2023-04-01T06:10:29;32.20;;;15.60;;
6033;SDS011;3045;43.226;27.858;2023-04-01T06:13:05;24.90;;;13.70;;
6033;SDS011;3045;43.226;27.858;2023-04-01T06:15:39;34.80;;;13.50;;
6033;SDS011;3045;43.226;27.858;2023-04-01T06:18:20;28.00;;;11.40;;
6033;SDS011;3045;43.226;27.858;2023-04-01T06:21:19;30.13;;;11.40;;
6033;SDS011;3045;43.226;27.858;2023-04-01T06:24:03;11.37;;;9.37;;
6033;SDS011;3045;43.226;27.858;2023-04-01T06:26:44;24.80;;;10.07;;
6033;SDS011;3045;43.226;27.858;2023-04-01T06:32:16;11.67;;;7.37;;
6033;SDS011;3045;43.226;27.858;2023-04-01T06:38:11;15.13;;;6.73;;
6033;SDS011;3045;43.226;27.858;2023-04-01T06:41:00;7.87;;;5.17;;
6033;SDS011;3045;43.226;27.858;2023-04-01T06:43:57;10.37;;;6.63;;
6033;SDS011;3045;43.226;27.858;2023-04-01T06:46:34;9.77;;;7.63;;
6033;SDS011;3045;43.226;27.858;2023-04-01T06:49:29;13.10;;;8.70;;
6033;SDS011;3045;43.226;27.858;2023-04-01T06:52:13;15.33;;;8.50;;
6033;SDS011;3045;43.226;27.858;2023-04-01T06:54:51;8.97;;;6.10;;
6033;SDS011;3045;43.226;27.858;2023-04-01T06:57:28;15.97;;;7.23;;
6033;SDS011;3045;43.226;27.858;2023-04-01T06:59:59;19.27;;;8.33;;
6033;SDS011;3045;43.226;27.858;2023-04-01T07:02:32;71.30;;;23.17;;
6033;SDS011;3045;43.226;27.858;2023-04-01T07:05:05;77.20;;;30.47;;
6033;SDS011;3045;43.226;27.858;2023-04-01T07:07:36;88.57;;;33.87;;
6033;SDS011;3045;43.226;27.858;2023-04-01T07:10:12;83.10;;;36.90;;
6033;SDS011;3045;43.226;27.858;2023-04-01T07:12:45;123.53;;;38.37;;
6033;SDS011;3045;43.226;27.858;2023-04-01T07:15:17;95.73;;;35.87;;
6033;SDS011;3045;43.226;27.858;2023-04-01T07:17:47;79.73;;;33.77;;
6033;SDS011;3045;43.226;27.858;2023-04-01T07:20:20;80.83;;;32.93;;
6033;SDS011;3045;43.226;27.858;2023-04-01T07:22:53;75.33;;;32.20;;
6033;SDS011;3045;43.226;27.858;2023-04-01T07:25:25;50.00;;;22.90;;
6033;SDS011;3045;43.226;27.858;2023-04-01T07:27:56;36.80;;;18.83;;
6033;SDS011;3045;43.226;27.858;2023-04-01T07:30:28;50.20;;;21.23;;
6033;SDS011;3045;43.226;27.858;2023-04-01T07:33:11;41.80;;;22.30;;
6033;SDS011;3045;43.226;27.858;2023-04-01T07:35:43;35.13;;;18.23;;
6033;SDS011;3045;43.226;27.858;2023-04-01T07:38:20;23.77;;;13.13;;
6033;SDS011;3045;43.226;27.858;2023-04-01T07:41:03;19.60;;;8.80;;
6033;SDS011;3045;43.226;27.858;2023-04-01T07:43:39;17.07;;;6.50;;
6033;SDS011;3045;43.226;27.858;2023-04-01T07:46:21;6.93;;;5.80;;
6033;SDS011;3045;43.226;27.858;2023-04-01T07:48:58;9.20;;;5.40;;
6033;SDS011;3045;43.226;27.858;2023-04-01T07:51:31;9.87;;;5.70;;
6033;SDS011;3045;43.226;27.858;2023-04-01T07:54:06;8.67;;;6.23;;
6033;SDS011;3045;43.226;27.858;2023-04-01T07:56:42;10.23;;;5.90;;
6033;SDS011;3045;43.226;27.858;2023-04-01T07:59:17;13.63;;;5.73;;
6033;SDS011;3045;43.226;27.858;2023-04-01T08:01:49;8.93;;;5.33;;
6033;SDS011;3045;43.226;27.858;2023-04-01T08:04:28;8.33;;;5.80;;
6033;SDS011;3045;43.226;27.858;2023-04-01T08:07:09;6.57;;;5.63;;
6033;SDS011;3045;43.226;27.858;2023-04-01T08:09:42;10.60;;;5.20;;
6033;SDS011;3045;43.226;27.858;2023-04-01T08:12:21;12.60;;;5.70;;
6033;SDS011;3045;43.226;27.858;2023-04-01T08:15:01;5.30;;;4.83;;
6033;SDS011;3045;43.226;27.858;2023-04-01T08:17:39;11.10;;;5.50;;
6033;SDS011;3045;43.226;27.858;2023-04-01T08:20:16;9.30;;;5.47;;
6033;SDS011;3045;43.226;27.858;2023-04-01T08:22:53;6.33;;;5.13;;
6033;SDS011;3045;43.226;27.858;2023-04-01T08:25:27;5.43;;;4.90;;
6033;SDS011;3045;43.226;27.858;2023-04-01T08:27:59;8.20;;;5.27;;
6033;SDS011;3045;43.226;27.858;2023-04-01T08:30:33;11.27;;;5.00;;
6033;SDS011;3045;43.226;27.858;2023-04-01T08:33:06;5.27;;;4.77;;
6033;SDS011;3045;43.226;27.858;2023-04-01T08:35:40;9.03;;;4.47;;
6033;SDS011;3045;43.226;27.858;2023-04-01T08:38:13;17.20;;;5.57;;
6033;SDS011;3045;43.226;27.858;2023-04-01T08:47:26;8.23;;;5.33;;
6033;SDS011;3045;43.226;27.858;2023-04-01T08:50:16;13.33;;;4.90;;
6033;SDS011;3045;43.226;27.858;2023-04-01T08:53:00;10.83;;;5.03;;
6033;SDS011;3045;43.226;27.858;2023-04-01T08:55:37;12.83;;;4.63;;
6033;SDS011;3045;43.226;27.858;2023-04-01T08:58:20;5.50;;;4.13;;
6033;SDS011;3045;43.226;27.858;2023-04-01T09:01:10;11.13;;;4.97;;
6033;SDS011;3045;43.226;27.858;2023-04-01T09:04:13;5.63;;;5.27;;
6033;SDS011;3045;43.226;27.858;2023-04-01T09:06:51;8.97;;;4.73;;
6033;SDS011;3045;43.226;27.858;2023-04-01T09:09:37;9.63;;;4.27;;
6033;SDS011;3045;43.226;27.858;2023-04-01T09:12:19;9.97;;;4.87;;
6033;SDS011;3045;43.226;27.858;2023-04-01T09:15:16;12.87;;;5.00;;
6033;SDS011;3045;43.226;27.858;2023-04-01T09:18:07;6.83;;;4.60;;
6033;SDS011;3045;43.226;27.858;2023-04-01T09:21:04;14.10;;;5.70;;
6033;SDS011;3045;43.226;27.858;2023-04-01T09:27:02;8.57;;;5.90;;
6033;SDS011;3045;43.226;27.858;2023-04-01T09:32:31;16.23;;;5.93;;
6033;SDS011;3045;43.226;27.858;2023-04-01T09:38:11;5.63;;;4.87;;
6033;SDS011;3045;43.226;27.858;2023-04-01T09:40:48;5.53;;;5.03;;
6033;SDS011;3045;43.226;27.858;2023-04-01T09:43:25;12.38;;;5.30;;
6033;SDS011;3045;43.226;27.858;2023-04-01T09:45:58;5.43;;;4.83;;
6033;SDS011;3045;43.226;27.858;2023-04-01T09:48:39;39.20;;;8.43;;
6033;SDS011;3045;43.226;27.858;2023-04-01T09:51:22;4.00;;;3.60;;
6033;SDS011;3045;43.226;27.858;2023-04-01T09:54:01;7.77;;;4.50;;
6033;SDS011;3045;43.226;27.858;2023-04-01T10:03:10;4.25;;;3.75;;
6033;SDS011;3045;43.226;27.858;2023-04-01T10:12:17;7.53;;;5.20;;
6033;SDS011;3045;43.226;27.858;2023-04-01T10:15:15;8.32;;;4.72;;
6033;SDS011;3045;43.226;27.858;2023-04-01T10:18:03;16.85;;;7.63;;
6033;SDS011;3045;43.226;27.858;2023-04-01T10:21:07;18.33;;;7.30;;
6033;SDS011;3045;43.226;27.858;2023-04-01T10:33:18;21.10;;;7.87;;
6033;SDS011;3045;43.226;27.858;2023-04-01T10:42:34;32.15;;;8.48;;
6033;SDS011;3045;43.226;27.858;2023-04-01T10:48:49;22.20;;;9.10;;
6033;SDS011;3045;43.226;27.858;2023-04-01T10:54:58;14.30;;;6.60;;
6033;SDS011;3045;43.226;27.858;2023-04-01T11:00:32;21.57;;;7.87;;
6033;SDS011;3045;43.226;27.858;2023-04-01T11:10:00;19.40;;;8.43;;
6033;SDS011;3045;43.226;27.858;2023-04-01T11:13:18;21.83;;;12.57;;
6033;SDS011;3045;43.226;27.858;2023-04-01T11:22:24;19.20;;;9.07;;
6033;SDS011;3045;43.226;27.858;2023-04-01T11:25:11;15.63;;;9.40;;
6033;SDS011;3045;43.226;27.858;2023-04-01T11:34:05;20.10;;;10.23;;
6033;SDS011;3045;43.226;27.858;2023-04-01T11:36:45;15.97;;;10.63;;
6033;SDS011;3045;43.226;27.858;2023-04-01T11:39:29;27.50;;;10.50;;
6033;SDS011;3045;43.226;27.858;2023-04-01T11:42:07;15.40;;;9.20;;
6033;SDS011;3045;43.226;27.858;2023-04-01T11:44:47;18.53;;;8.60;;
6033;SDS011;3045;43.226;27.858;2023-04-01T11:50:24;12.57;;;7.77;;
6033;SDS011;3045;43.226;27.858;2023-04-01T11:53:05;11.67;;;7.37;;
6033;SDS011;3045;43.226;27.858;2023-04-01T11:58:59;7.47;;;6.63;;
6033;SDS011;3045;43.226;27.858;2023-04-01T12:01:51;11.00;;;6.67;;
6033;SDS011;3045;43.226;27.858;2023-04-01T12:07:43;7.77;;;6.10;;
6033;SDS011;3045;43.226;27.858;2023-04-01T12:10:19;8.73;;;5.50;;
6033;SDS011;3045;43.226;27.858;2023-04-01T12:12:49;7.37;;;4.93;;
6033;SDS011;3045;43.226;27.858;2023-04-01T12:15:26;11.10;;;5.90;;
6033;SDS011;3045;43.226;27.858;2023-04-01T12:18:08;8.37;;;4.87;;
6033;SDS011;3045;43.226;27.858;2023-04-01T12:20:45;9.43;;;5.70;;
6033;SDS011;3045;43.226;27.858;2023-04-01T12:23:38;5.63;;;5.00;;
6033;SDS011;3045;43.226;27.858;2023-04-01T12:26:28;5.80;;;4.63;;
6033;SDS011;3045;43.226;27.858;2023-04-01T12:29:07;10.93;;;6.40;;
6033;SDS011;3045;43.226;27.858;2023-04-01T12:31:47;16.70;;;6.77;;
6033;SDS011;3045;43.226;27.858;2023-04-01T12:34:29;11.43;;;7.43;;
6033;SDS011;3045;43.226;27.858;2023-04-01T12:37:26;17.53;;;10.20;;
6033;SDS011;3045;43.226;27.858;2023-04-01T12:40:06;12.27;;;9.87;;
6033;SDS011;3045;43.226;27.858;2023-04-01T12:43:10;20.27;;;10.67;;
6033;SDS011;3045;43.226;27.858;2023-04-01T12:45:54;19.63;;;8.20;;
6033;SDS011;3045;43.226;27.858;2023-04-01T12:48:42;21.87;;;10.57;;
6033;SDS011;3045;43.226;27.858;2023-04-01T12:54:45;15.33;;;7.27;;
6033;SDS011;3045;43.226;27.858;2023-04-01T13:00:52;19.27;;;8.13;;
6033;SDS011;3045;43.226;27.858;2023-04-01T13:06:43;13.47;;;7.60;;
6033;SDS011;3045;43.226;27.858;2023-04-01T13:09:24;14.77;;;7.53;;
6033;SDS011;3045;43.226;27.858;2023-04-01T13:15:04;8.43;;;7.37;;
6033;SDS011;3045;43.226;27.858;2023-04-01T13:17:42;9.57;;;7.43;;
6033;SDS011;3045;43.226;27.858;2023-04-01T13:20:16;17.77;;;8.70;;
6033;SDS011;3045;43.226;27.858;2023-04-01T13:22:56;14.50;;;7.67;;
6033;SDS011;3045;43.226;27.858;2023-04-01T13:25:35;13.40;;;6.90;;
6033;SDS011;3045;43.226;27.858;2023-04-01T13:28:11;8.80;;;7.07;;
6033;SDS011;3045;43.226;27.858;2023-04-01T13:30:43;16.33;;;6.90;;
6033;SDS011;3045;43.226;27.858;2023-04-01T13:33:16;10.70;;;7.87;;
6033;SDS011;3045;43.226;27.858;2023-04-01T13:35:56;29.73;;;12.13;;
6033;SDS011;3045;43.226;27.858;2023-04-01T13:38:41;31.80;;;13.80;;
6033;SDS011;3045;43.226;27.858;2023-04-01T13:41:27;21.73;;;12.03;;
6033;SDS011;3045;43.226;27.858;2023-04-01T13:44:02;20.87;;;11.27;;
6033;SDS011;3045;43.226;27.858;2023-04-01T13:46:43;26.37;;;11.67;;
6033;SDS011;3045;43.226;27.858;2023-04-01T13:49:31;28.03;;;9.03;;
6033;SDS011;3045;43.226;27.858;2023-04-01T13:52:24;20.60;;;12.07;;
6033;SDS011;3045;43.226;27.858;2023-04-01T13:55:26;25.97;;;12.13;;
6033;SDS011;3045;43.226;27.858;2023-04-01T13:58:17;20.27;;;8.80;;
6033;SDS011;3045;43.226;27.858;2023-04-01T14:01:00;10.37;;;6.43;;
6033;SDS011;3045;43.226;27.858;2023-04-01T14:06:34;14.77;;;6.70;;
6033;SDS011;3045;43.226;27.858;2023-04-01T14:09:15;13.27;;;9.00;;
6033;SDS011;3045;43.226;27.858;2023-04-01T14:12:00;26.30;;;11.87;;
6033;SDS011;3045;43.226;27.858;2023-04-01T14:14:36;18.40;;;9.63;;
6033;SDS011;3045;43.226;27.858;2023-04-01T14:17:18;13.77;;;7.47;;
6033;SDS011;3045;43.226;27.858;2023-04-01T14:20:14;11.90;;;6.90;;
6033;SDS011;3045;43.226;27.858;2023-04-01T14:22:58;9.60;;;5.70;;
6033;SDS011;3045;43.226;27.858;2023-04-01T14:25:39;9.97;;;5.90;;
6033;SDS011;3045;43.226;27.858;2023-04-01T14:28:22;6.63;;;5.73;;
6033;SDS011;3045;43.226;27.858;2023-04-01T14:31:04;10.60;;;6.67;;
6033;SDS011;3045;43.226;27.858;2023-04-01T14:33:46;12.37;;;6.77;;
6033;SDS011;3045;43.226;27.858;2023-04-01T14:42:21;10.77;;;7.17;;
6033;SDS011;3045;43.226;27.858;2023-04-01T14:45:20;6.23;;;5.53;;
6033;SDS011;3045;43.226;27.858;2023-04-01T14:48:07;19.63;;;7.00;;
6033;SDS011;3045;43.226;27.858;2023-04-01T14:50:44;12.33;;;7.17;;
6033;SDS011;3045;43.226;27.858;2023-04-01T14:53:16;9.27;;;6.33;;
6033;SDS011;3045;43.226;27.858;2023-04-01T14:55:53;7.90;;;6.63;;
6033;SDS011;3045;43.226;27.858;2023-04-01T14:58:22;9.03;;;6.73;;
6033;SDS011;3045;43.226;27.858;2023-04-01T15:00:58;10.20;;;7.07;;
6033;SDS011;3045;43.226;27.858;2023-04-01T15:03:38;10.10;;;6.70;;
6033;SDS011;3045;43.226;27.858;2023-04-01T15:06:25;10.80;;;7.23;;
6033;SDS011;3045;43.226;27.858;2023-04-01T15:09:05;16.70;;;7.33;;
6033;SDS011;3045;43.226;27.858;2023-04-01T15:11:41;10.83;;;6.87;;
6033;SDS011;3045;43.226;27.858;2023-04-01T15:14:20;7.87;;;6.27;;
6033;SDS011;3045;43.226;27.858;2023-04-01T15:17:05;10.63;;;6.40;;
6033;SDS011;3045;43.226;27.858;2023-04-01T15:19:53;9.27;;;6.63;;
6033;SDS011;3045;43.226;27.858;2023-04-01T15:22:39;7.97;;;6.10;;
6033;SDS011;3045;43.226;27.858;2023-04-01T15:25:20;18.00;;;6.83;;
6033;SDS011;3045;43.226;27.858;2023-04-01T15:27:58;11.67;;;6.67;;
6033;SDS011;3045;43.226;27.858;2023-04-01T15:30:34;9.03;;;6.57;;
6033;SDS011;3045;43.226;27.858;2023-04-01T15:33:20;12.00;;;6.73;;
6033;SDS011;3045;43.226;27.858;2023-04-01T15:36:06;6.33;;;5.73;;
6033;SDS011;3045;43.226;27.858;2023-04-01T15:38:47;8.03;;;5.87;;
6033;SDS011;3045;43.226;27.858;2023-04-01T15:41:19;9.73;;;6.40;;
6033;SDS011;3045;43.226;27.858;2023-04-01T15:43:53;17.23;;;7.17;;
6033;SDS011;3045;43.226;27.858;2023-04-01T15:46:24;15.73;;;5.90;;
6033;SDS011;3045;43.226;27.858;2023-04-01T15:49:14;14.10;;;6.27;;
6033;SDS011;3045;43.226;27.858;2023-04-01T15:51:54;10.70;;;6.17;;
6033;SDS011;3045;43.226;27.858;2023-04-01T15:57:39;12.67;;;6.80;;
6033;SDS011;3045;43.226;27.858;2023-04-01T16:00:25;7.03;;;6.10;;
6033;SDS011;3045;43.226;27.858;2023-04-01T16:05:55;10.13;;;6.43;;
6033;SDS011;3045;43.226;27.858;2023-04-01T16:08:42;7.70;;;6.27;;
6033;SDS011;3045;43.226;27.858;2023-04-01T16:11:29;15.70;;;6.67;;
6033;SDS011;3045;43.226;27.858;2023-04-01T16:14:11;17.50;;;6.87;;
6033;SDS011;3045;43.226;27.858;2023-04-01T16:17:02;11.73;;;7.33;;
6033;SDS011;3045;43.226;27.858;2023-04-01T16:19:44;15.07;;;7.47;;
6033;SDS011;3045;43.226;27.858;2023-04-01T16:22:19;17.13;;;7.43;;
6033;SDS011;3045;43.226;27.858;2023-04-01T16:24:53;21.23;;;8.30;;
6033;SDS011;3045;43.226;27.858;2023-04-01T16:27:41;18.87;;;7.80;;
6033;SDS011;3045;43.226;27.858;2023-04-01T16:30:22;17.37;;;7.73;;
6033;SDS011;3045;43.226;27.858;2023-04-01T16:32:59;17.90;;;8.10;;
6033;SDS011;3045;43.226;27.858;2023-04-01T16:35:31;9.50;;;7.07;;
6033;SDS011;3045;43.226;27.858;2023-04-01T16:38:09;20.07;;;8.40;;
6033;SDS011;3045;43.226;27.858;2023-04-01T16:40:44;11.87;;;7.20;;
6033;SDS011;3045;43.226;27.858;2023-04-01T16:43:20;11.53;;;7.00;;
6033;SDS011;3045;43.226;27.858;2023-04-01T16:45:53;19.17;;;7.83;;
6033;SDS011;3045;43.226;27.858;2023-04-01T16:48:28;10.50;;;7.67;;
6033;SDS011;3045;43.226;27.858;2023-04-01T16:51:09;14.87;;;7.73;;
6033;SDS011;3045;43.226;27.858;2023-04-01T16:53:41;16.53;;;7.40;;
6033;SDS011;3045;43.226;27.858;2023-04-01T16:56:12;18.23;;;8.47;;
6033;SDS011;3045;43.226;27.858;2023-04-01T16:58:48;21.43;;;7.70;;
6033;SDS011;3045;43.226;27.858;2023-04-01T17:01:24;15.43;;;8.77;;
6033;SDS011;3045;43.226;27.858;2023-04-01T17:03:57;16.37;;;8.80;;
6033;SDS011;3045;43.226;27.858;2023-04-01T17:06:31;14.27;;;9.20;;
6033;SDS011;3045;43.226;27.858;2023-04-01T17:09:20;20.73;;;10.23;;
6033;SDS011;3045;43.226;27.858;2023-04-01T17:12:03;18.53;;;9.63;;
6033;SDS011;3045;43.226;27.858;2023-04-01T17:14:38;15.13;;;9.83;;
6033;SDS011;3045;43.226;27.858;2023-04-01T17:20:11;20.20;;;9.50;;
6033;SDS011;3045;43.226;27.858;2023-04-01T17:22:47;19.33;;;9.77;;
6033;SDS011;3045;43.226;27.858;2023-04-01T17:25:28;26.27;;;10.67;;
6033;SDS011;3045;43.226;27.858;2023-04-01T17:28:08;22.10;;;11.70;;
6033;SDS011;3045;43.226;27.858;2023-04-01T17:30:47;25.47;;;11.20;;
6033;SDS011;3045;43.226;27.858;2023-04-01T17:33:25;18.00;;;10.23;;
6033;SDS011;3045;43.226;27.858;2023-04-01T17:36:03;24.70;;;9.80;;
6033;SDS011;3045;43.226;27.858;2023-04-01T17:41:36;23.87;;;12.00;;
6033;SDS011;3045;43.226;27.858;2023-04-01T17:44:18;28.50;;;11.13;;
6033;SDS011;3045;43.226;27.858;2023-04-01T17:47:05;22.73;;;12.50;;